Portada
METAR-TAF:

METAR-TAF

Aeroports :

Còrdova, Espanya

latitud: 37-51N, longitud: 004-51W, altitud: 90 m

Observació

L'informe es va fer fa 24 minuts, a les 17:00 UTC
Vent 4 kt del Sud, variant entre Sud i Oest/Sud-Oest
Temperatura 19°C
Humitat 60%
Pressió 1011 hPa
Visibilitat 10 km o més
Escasses núvols a una alçada de 4000 ft

METAR: LEBA 191700Z 19004KT 170V240 9999 FEW040 19/11 Q1011

Hora: 19:24 (17:24 UTC)

Pronòstic

L'informe es va fer fa 3 hores i 24 minuts, a les 14:00 UTC
Pronòstic vàlid del 19 a les 15 UTC al 19 a les 24 UTC
Vent 4 kt del Est
Visibilitat 10 km o més
Escasses núvols a una alçada de 3000 ft

TAF: LEBA 191400Z 1915/1924 08004KT 9999 FEW030

Observacions i pronòstics meteorològics de més de 4000 aeroports (METAR i TAF).

Les estacions disponibles són els punts grocs i vermells al mapa.

Posi el ratolí al punt desitjat per veure el nom de l'estació.

Feu clic per veure les observacions i els pronòstics meteorològics.

Per canviar el mapa: feu clic els botons verds amb una creu de color negre per apropar; al botó verd amb un guió per allunyar la imatge; o en les fletxes verdes per a mapes adjacents.


METAR-TAF: